sensor_id;sensor_type;location;lat;lon;timestamp;temperature;humidity
64833;HTU21D;51290;45.060;38.948;2022-11-27T00:00:43;7.86;79.65
64833;HTU21D;51290;45.060;38.948;2022-11-27T00:03:09;7.84;79.71
64833;HTU21D;51290;45.060;38.948;2022-11-27T00:05:35;7.84;79.62
64833;HTU21D;51290;45.060;38.948;2022-11-27T00:08:02;7.78;79.68
64833;HTU21D;51290;45.060;38.948;2022-11-27T00:10:27;7.76;79.87
64833;HTU21D;51290;45.060;38.948;2022-11-27T00:12:53;7.74;79.88
64833;HTU21D;51290;45.060;38.948;2022-11-27T00:15:19;7.71;79.80
64833;HTU21D;51290;45.060;38.948;2022-11-27T00:17:45;7.68;80.01
64833;HTU21D;51290;45.060;38.948;2022-11-27T00:20:12;7.63;80.02
64833;HTU21D;51290;45.060;38.948;2022-11-27T00:22:38;7.63;80.09
64833;HTU21D;51290;45.060;38.948;2022-11-27T00:25:04;7.62;80.01
64833;HTU21D;51290;45.060;38.948;2022-11-27T00:27:30;7.63;79.98
64833;HTU21D;51290;45.060;38.948;2022-11-27T00:29:56;7.63;79.97
64833;HTU21D;51290;45.060;38.948;2022-11-27T00:32:22;7.65;80.02
64833;HTU21D;51290;45.060;38.948;2022-11-27T00:34:48;7.67;80.00
64833;HTU21D;51290;45.060;38.948;2022-11-27T00:37:14;7.70;80.07
64833;HTU21D;51290;45.060;38.948;2022-11-27T00:39:40;7.72;79.95
64833;HTU21D;51290;45.060;38.948;2022-11-27T00:42:06;7.75;79.95
64833;HTU21D;51290;45.060;38.948;2022-11-27T00:44:32;7.76;79.91
64833;HTU21D;51290;45.060;38.948;2022-11-27T00:46:58;7.78;79.85
64833;HTU21D;51290;45.060;38.948;2022-11-27T00:49:24;7.78;79.81
64833;HTU21D;51290;45.060;38.948;2022-11-27T00:51:50;7.77;79.75
64833;HTU21D;51290;45.060;38.948;2022-11-27T00:54:16;7.77;79.73
64833;HTU21D;51290;45.060;38.948;2022-11-27T00:56:42;7.76;79.73
64833;HTU21D;51290;45.060;38.948;2022-11-27T00:59:09;7.77;79.78
64833;HTU21D;51290;45.060;38.948;2022-11-27T01:01:38;7.79;79.77
64833;HTU21D;51290;45.060;38.948;2022-11-27T01:04:06;7.83;79.75
64833;HTU21D;51290;45.060;38.948;2022-11-27T01:06:32;7.85;79.66
64833;HTU21D;51290;45.060;38.948;2022-11-27T01:08:59;7.83;79.53
64833;HTU21D;51290;45.060;38.948;2022-11-27T01:11:27;7.83;79.62
64833;HTU21D;51290;45.060;38.948;2022-11-27T01:14:09;7.82;79.62
64833;HTU21D;51290;45.060;38.948;2022-11-27T01:16:35;7.81;79.62
64833;HTU21D;51290;45.060;38.948;2022-11-27T01:19:03;7.81;79.65
64833;HTU21D;51290;45.060;38.948;2022-11-27T01:21:31;7.82;79.63
64833;HTU21D;51290;45.060;38.948;2022-11-27T01:24:06;7.83;79.60
64833;HTU21D;51290;45.060;38.948;2022-11-27T01:26:33;7.84;79.59
64833;HTU21D;51290;45.060;38.948;2022-11-27T01:28:59;7.86;79.59
64833;HTU21D;51290;45.060;38.948;2022-11-27T01:31:27;7.87;79.56
64833;HTU21D;51290;45.060;38.948;2022-11-27T01:33:58;7.87;79.57
64833;HTU21D;51290;45.060;38.948;2022-11-27T01:36:25;7.87;79.56
64833;HTU21D;51290;45.060;38.948;2022-11-27T01:38:51;7.89;79.56
64833;HTU21D;51290;45.060;38.948;2022-11-27T01:41:26;7.86;79.56
64833;HTU21D;51290;45.060;38.948;2022-11-27T01:44:42;7.86;79.54
64833;HTU21D;51290;45.060;38.948;2022-11-27T01:46:48;7.84;79.46
64833;HTU21D;51290;45.060;38.948;2022-11-27T01:49:25;7.84;79.51
64833;HTU21D;51290;45.060;38.948;2022-11-27T01:54:36;7.87;79.62
64833;HTU21D;51290;45.060;38.948;2022-11-27T01:57:10;7.90;79.59
64833;HTU21D;51290;45.060;38.948;2022-11-27T01:59:38;7.89;79.49
64833;HTU21D;51290;45.060;38.948;2022-11-27T02:02:04;7.90;79.49
64833;HTU21D;51290;45.060;38.948;2022-11-27T02:04:30;7.93;79.49
64833;HTU21D;51290;45.060;38.948;2022-11-27T02:06:57;7.94;79.45
64833;HTU21D;51290;45.060;38.948;2022-11-27T02:09:25;7.93;79.47
64833;HTU21D;51290;45.060;38.948;2022-11-27T02:12:10;7.89;79.50
64833;HTU21D;51290;45.060;38.948;2022-11-27T02:14:48;7.89;79.54
64833;HTU21D;51290;45.060;38.948;2022-11-27T02:20:07;7.92;79.53
64833;HTU21D;51290;45.060;38.948;2022-11-27T02:28:54;7.91;79.55
64833;HTU21D;51290;45.060;38.948;2022-11-27T02:31:33;7.92;79.47
64833;HTU21D;51290;45.060;38.948;2022-11-27T02:34:54;7.91;79.43
64833;HTU21D;51290;45.060;38.948;2022-11-27T02:37:09;7.90;79.46
64833;HTU21D;51290;45.060;38.948;2022-11-27T02:42:22;7.92;79.40
64833;HTU21D;51290;45.060;38.948;2022-11-27T02:44:57;7.93;79.37
64833;HTU21D;51290;45.060;38.948;2022-11-27T02:47:26;7.96;79.40
64833;HTU21D;51290;45.060;38.948;2022-11-27T02:49:53;7.99;79.39
64833;HTU21D;51290;45.060;38.948;2022-11-27T02:52:24;8.01;79.33
64833;HTU21D;51290;45.060;38.948;2022-11-27T02:54:54;8.02;79.31
64833;HTU21D;51290;45.060;38.948;2022-11-27T02:57:23;8.05;79.27
64833;HTU21D;51290;45.060;38.948;2022-11-27T02:59:50;8.06;79.12
64833;HTU21D;51290;45.060;38.948;2022-11-27T03:02:33;8.05;79.13
64833;HTU21D;51290;45.060;38.948;2022-11-27T03:05:01;8.05;79.11
64833;HTU21D;51290;45.060;38.948;2022-11-27T03:10:30;8.07;79.14
64833;HTU21D;51290;45.060;38.948;2022-11-27T03:12:59;8.05;79.19
64833;HTU21D;51290;45.060;38.948;2022-11-27T03:15:40;8.07;79.19
64833;HTU21D;51290;45.060;38.948;2022-11-27T03:18:27;8.08;79.15
64833;HTU21D;51290;45.060;38.948;2022-11-27T03:21:12;8.09;79.10
64833;HTU21D;51290;45.060;38.948;2022-11-27T03:23:40;8.09;79.06
64833;HTU21D;51290;45.060;38.948;2022-11-27T03:26:06;8.09;79.07
64833;HTU21D;51290;45.060;38.948;2022-11-27T03:28:33;8.11;79.08
64833;HTU21D;51290;45.060;38.948;2022-11-27T03:30:59;8.09;79.20
64833;HTU21D;51290;45.060;38.948;2022-11-27T03:33:25;8.09;79.21
64833;HTU21D;51290;45.060;38.948;2022-11-27T03:35:52;8.11;79.20
64833;HTU21D;51290;45.060;38.948;2022-11-27T03:38:18;8.11;79.14
64833;HTU21D;51290;45.060;38.948;2022-11-27T03:40:54;8.05;79.08
64833;HTU21D;51290;45.060;38.948;2022-11-27T03:43:28;8.01;79.08
64833;HTU21D;51290;45.060;38.948;2022-11-27T03:46:02;7.97;79.11
64833;HTU21D;51290;45.060;38.948;2022-11-27T03:48:42;7.93;79.17
64833;HTU21D;51290;45.060;38.948;2022-11-27T03:51:19;7.91;79.24
64833;HTU21D;51290;45.060;38.948;2022-11-27T03:56:25;7.84;79.30
64833;HTU21D;51290;45.060;38.948;2022-11-27T04:01:35;7.76;79.43
64833;HTU21D;51290;45.060;38.948;2022-11-27T04:04:01;7.75;79.42
64833;HTU21D;51290;45.060;38.948;2022-11-27T04:06:27;7.73;79.43
64833;HTU21D;51290;45.060;38.948;2022-11-27T04:08:53;7.72;79.40
64833;HTU21D;51290;45.060;38.948;2022-11-27T04:11:19;7.68;79.48
64833;HTU21D;51290;45.060;38.948;2022-11-27T04:13:45;7.65;79.48
64833;HTU21D;51290;45.060;38.948;2022-11-27T04:16:11;7.65;79.54
64833;HTU21D;51290;45.060;38.948;2022-11-27T04:18:37;7.63;79.53
64833;HTU21D;51290;45.060;38.948;2022-11-27T04:21:03;7.64;79.54
64833;HTU21D;51290;45.060;38.948;2022-11-27T04:23:29;7.67;79.49
64833;HTU21D;51290;45.060;38.948;2022-11-27T04:25:55;7.67;79.41
64833;HTU21D;51290;45.060;38.948;2022-11-27T04:28:21;7.68;79.38
64833;HTU21D;51290;45.060;38.948;2022-11-27T04:30:51;7.65;79.40
64833;HTU21D;51290;45.060;38.948;2022-11-27T04:33:18;7.63;79.43
64833;HTU21D;51290;45.060;38.948;2022-11-27T04:35:44;7.63;79.49
64833;HTU21D;51290;45.060;38.948;2022-11-27T04:38:10;7.63;79.56
64833;HTU21D;51290;45.060;38.948;2022-11-27T04:40:36;7.67;79.55
64833;HTU21D;51290;45.060;38.948;2022-11-27T04:43:02;7.70;79.59
64833;HTU21D;51290;45.060;38.948;2022-11-27T04:45:28;7.70;79.53
64833;HTU21D;51290;45.060;38.948;2022-11-27T04:47:55;7.71;79.51
64833;HTU21D;51290;45.060;38.948;2022-11-27T04:50:21;7.73;79.53
64833;HTU21D;51290;45.060;38.948;2022-11-27T04:52:47;7.73;79.53
64833;HTU21D;51290;45.060;38.948;2022-11-27T04:55:13;7.74;79.48
64833;HTU21D;51290;45.060;38.948;2022-11-27T04:57:39;7.73;79.45
64833;HTU21D;51290;45.060;38.948;2022-11-27T05:00:05;7.70;79.82
64833;HTU21D;51290;45.060;38.948;2022-11-27T05:02:31;7.67;79.56
64833;HTU21D;51290;45.060;38.948;2022-11-27T05:04:57;7.63;79.65
64833;HTU21D;51290;45.060;38.948;2022-11-27T05:07:23;7.61;79.72
64833;HTU21D;51290;45.060;38.948;2022-11-27T05:09:50;7.64;79.70
64833;HTU21D;51290;45.060;38.948;2022-11-27T05:12:16;7.68;79.70
64833;HTU21D;51290;45.060;38.948;2022-11-27T05:14:42;7.70;79.66
64833;HTU21D;51290;45.060;38.948;2022-11-27T05:17:08;7.71;79.72
64833;HTU21D;51290;45.060;38.948;2022-11-27T05:19:34;7.71;79.68
64833;HTU21D;51290;45.060;38.948;2022-11-27T05:22:01;7.71;79.74
64833;HTU21D;51290;45.060;38.948;2022-11-27T05:24:27;7.71;79.76
64833;HTU21D;51290;45.060;38.948;2022-11-27T05:26:55;7.71;79.74
64833;HTU21D;51290;45.060;38.948;2022-11-27T05:29:21;7.71;79.76
64833;HTU21D;51290;45.060;38.948;2022-11-27T05:31:48;7.74;79.69
64833;HTU21D;51290;45.060;38.948;2022-11-27T05:34:14;7.75;79.69
64833;HTU21D;51290;45.060;38.948;2022-11-27T05:36:41;7.77;79.65
64833;HTU21D;51290;45.060;38.948;2022-11-27T05:39:08;7.75;79.54
64833;HTU21D;51290;45.060;38.948;2022-11-27T05:41:36;7.73;79.49
64833;HTU21D;51290;45.060;38.948;2022-11-27T05:44:03;7.69;79.49
64833;HTU21D;51290;45.060;38.948;2022-11-27T05:46:29;7.67;79.59
64833;HTU21D;51290;45.060;38.948;2022-11-27T05:48:55;7.68;79.59
64833;HTU21D;51290;45.060;38.948;2022-11-27T05:51:21;7.68;79.53
64833;HTU21D;51290;45.060;38.948;2022-11-27T05:53:47;7.67;79.46
64833;HTU21D;51290;45.060;38.948;2022-11-27T05:56:16;7.65;79.45
64833;HTU21D;51290;45.060;38.948;2022-11-27T05:58:44;7.63;79.43
64833;HTU21D;51290;45.060;38.948;2022-11-27T06:01:11;7.61;79.43
64833;HTU21D;51290;45.060;38.948;2022-11-27T06:03:37;7.59;79.43
64833;HTU21D;51290;45.060;38.948;2022-11-27T06:06:08;7.58;79.41
64833;HTU21D;51290;45.060;38.948;2022-11-27T06:08:38;7.56;79.55
64833;HTU21D;51290;45.060;38.948;2022-11-27T06:11:13;7.57;79.61
64833;HTU21D;51290;45.060;38.948;2022-11-27T06:13:40;7.60;79.64
64833;HTU21D;51290;45.060;38.948;2022-11-27T06:16:15;7.63;79.58
64833;HTU21D;51290;45.060;38.948;2022-11-27T06:18:42;7.68;79.54
64833;HTU21D;51290;45.060;38.948;2022-11-27T06:21:10;7.70;79.39
64833;HTU21D;51290;45.060;38.948;2022-11-27T06:23:36;7.70;79.37
64833;HTU21D;51290;45.060;38.948;2022-11-27T06:26:21;7.71;79.47
64833;HTU21D;51290;45.060;38.948;2022-11-27T06:28:48;7.75;79.49
64833;HTU21D;51290;45.060;38.948;2022-11-27T06:31:20;7.79;79.48
64833;HTU21D;51290;45.060;38.948;2022-11-27T06:33:47;7.84;79.49
64833;HTU21D;51290;45.060;38.948;2022-11-27T06:36:14;7.86;79.49
64833;HTU21D;51290;45.060;38.948;2022-11-27T06:38:40;7.90;79.39
64833;HTU21D;51290;45.060;38.948;2022-11-27T06:41:14;7.89;79.33
64833;HTU21D;51290;45.060;38.948;2022-11-27T06:43:41;7.89;79.37
64833;HTU21D;51290;45.060;38.948;2022-11-27T06:46:10;7.91;79.38
64833;HTU21D;51290;45.060;38.948;2022-11-27T06:48:37;7.90;79.46
64833;HTU21D;51290;45.060;38.948;2022-11-27T06:51:05;7.90;79.53
64833;HTU21D;51290;45.060;38.948;2022-11-27T06:53:34;7.91;79.47
64833;HTU21D;51290;45.060;38.948;2022-11-27T06:56:05;7.90;79.50
64833;HTU21D;51290;45.060;38.948;2022-11-27T06:58:34;7.91;79.59
64833;HTU21D;51290;45.060;38.948;2022-11-27T07:01:04;7.91;79.53
64833;HTU21D;51290;45.060;38.948;2022-11-27T07:03:30;7.90;79.54
64833;HTU21D;51290;45.060;38.948;2022-11-27T07:06:00;7.88;79.59
64833;HTU21D;51290;45.060;38.948;2022-11-27T07:08:26;7.89;79.63
64833;HTU21D;51290;45.060;38.948;2022-11-27T07:10:52;7.88;79.64
64833;HTU21D;51290;45.060;38.948;2022-11-27T07:13:18;7.87;79.72
64833;HTU21D;51290;45.060;38.948;2022-11-27T07:15:44;7.88;79.81
64833;HTU21D;51290;45.060;38.948;2022-11-27T07:18:10;7.93;79.82
64833;HTU21D;51290;45.060;38.948;2022-11-27T07:20:36;7.96;79.82
64833;HTU21D;51290;45.060;38.948;2022-11-27T07:23:02;7.99;79.69
64833;HTU21D;51290;45.060;38.948;2022-11-27T07:25:28;7.98;79.58
64833;HTU21D;51290;45.060;38.948;2022-11-27T07:27:54;7.96;79.62
64833;HTU21D;51290;45.060;38.948;2022-11-27T07:30:20;7.93;79.65
64833;HTU21D;51290;45.060;38.948;2022-11-27T07:32:46;7.91;79.75
64833;HTU21D;51290;45.060;38.948;2022-11-27T07:35:12;7.91;79.82
64833;HTU21D;51290;45.060;38.948;2022-11-27T07:37:38;7.93;79.91
64833;HTU21D;51290;45.060;38.948;2022-11-27T07:40:05;7.99;79.94
64833;HTU21D;51290;45.060;38.948;2022-11-27T07:42:31;8.03;79.89
64833;HTU21D;51290;45.060;38.948;2022-11-27T07:44:57;8.08;79.88
64833;HTU21D;51290;45.060;38.948;2022-11-27T07:47:23;8.14;79.85
64833;HTU21D;51290;45.060;38.948;2022-11-27T07:49:49;8.21;79.82
64833;HTU21D;51290;45.060;38.948;2022-11-27T07:52:15;8.28;79.74
64833;HTU21D;51290;45.060;38.948;2022-11-27T07:54:41;8.35;79.63
64833;HTU21D;51290;45.060;38.948;2022-11-27T07:57:07;8.42;79.59
64833;HTU21D;51290;45.060;38.948;2022-11-27T07:59:33;8.49;79.63
64833;HTU21D;51290;45.060;38.948;2022-11-27T08:01:59;8.56;79.53
64833;HTU21D;51290;45.060;38.948;2022-11-27T08:04:26;8.62;79.33
64833;HTU21D;51290;45.060;38.948;2022-11-27T08:06:52;8.63;79.29
64833;HTU21D;51290;45.060;38.948;2022-11-27T08:09:18;8.66;79.23
64833;HTU21D;51290;45.060;38.948;2022-11-27T08:11:43;8.67;79.17
64833;HTU21D;51290;45.060;38.948;2022-11-27T08:14:11;8.71;79.21
64833;HTU21D;51290;45.060;38.948;2022-11-27T08:16:38;8.75;79.20
64833;HTU21D;51290;45.060;38.948;2022-11-27T08:19:04;8.81;79.17
64833;HTU21D;51290;45.060;38.948;2022-11-27T08:21:31;8.83;79.13
64833;HTU21D;51290;45.060;38.948;2022-11-27T08:23:57;8.87;79.07
64833;HTU21D;51290;45.060;38.948;2022-11-27T08:26:24;8.88;79.08
64833;HTU21D;51290;45.060;38.948;2022-11-27T08:28:52;8.90;78.99
64833;HTU21D;51290;45.060;38.948;2022-11-27T08:31:18;8.93;79.02
64833;HTU21D;51290;45.060;38.948;2022-11-27T08:33:45;8.96;78.97
64833;HTU21D;51290;45.060;38.948;2022-11-27T08:36:12;8.97;78.77
64833;HTU21D;51290;45.060;38.948;2022-11-27T08:38:38;8.96;78.81
64833;HTU21D;51290;45.060;38.948;2022-11-27T08:41:05;8.98;78.83
64833;HTU21D;51290;45.060;38.948;2022-11-27T08:43:31;8.98;78.70
64833;HTU21D;51290;45.060;38.948;2022-11-27T08:45:58;8.97;78.72
64833;HTU21D;51290;45.060;38.948;2022-11-27T08:48:25;8.98;78.69
64833;HTU21D;51290;45.060;38.948;2022-11-27T08:50:51;8.95;78.39
64833;HTU21D;51290;45.060;38.948;2022-11-27T08:53:17;8.89;78.45
64833;HTU21D;51290;45.060;38.948;2022-11-27T08:55:44;8.85;78.64
64833;HTU21D;51290;45.060;38.948;2022-11-27T08:58:10;8.85;78.81
64833;HTU21D;51290;45.060;38.948;2022-11-27T09:00:36;8.88;79.01
64833;HTU21D;51290;45.060;38.948;2022-11-27T09:05:42;8.87;78.83
64833;HTU21D;51290;45.060;38.948;2022-11-27T09:08:09;8.83;78.84
64833;HTU21D;51290;45.060;38.948;2022-11-27T09:10:38;8.80;78.97
64833;HTU21D;51290;45.060;38.948;2022-11-27T09:13:03;8.80;79.08
64833;HTU21D;51290;45.060;38.948;2022-11-27T09:15:29;8.81;79.14
64833;HTU21D;51290;45.060;38.948;2022-11-27T09:17:55;8.82;79.11
64833;HTU21D;51290;45.060;38.948;2022-11-27T09:20:21;8.82;79.02
64833;HTU21D;51290;45.060;38.948;2022-11-27T09:22:47;8.80;78.93
64833;HTU21D;51290;45.060;38.948;2022-11-27T09:25:16;8.79;78.98
64833;HTU21D;51290;45.060;38.948;2022-11-27T09:27:42;8.80;79.11
64833;HTU21D;51290;45.060;38.948;2022-11-27T09:30:08;8.81;79.08
64833;HTU21D;51290;45.060;38.948;2022-11-27T09:32:34;8.82;78.98
64833;HTU21D;51290;45.060;38.948;2022-11-27T09:35:00;8.81;78.95
64833;HTU21D;51290;45.060;38.948;2022-11-27T09:37:26;8.79;79.01
64833;HTU21D;51290;45.060;38.948;2022-11-27T09:39:52;8.79;79.14
64833;HTU21D;51290;45.060;38.948;2022-11-27T09:42:37;8.82;79.17
64833;HTU21D;51290;45.060;38.948;2022-11-27T09:45:07;8.81;79.15
64833;HTU21D;51290;45.060;38.948;2022-11-27T09:47:44;8.81;79.24
64833;HTU21D;51290;45.060;38.948;2022-11-27T09:52:48;8.82;79.21
64833;HTU21D;51290;45.060;38.948;2022-11-27T09:55:27;8.85;79.28
64833;HTU21D;51290;45.060;38.948;2022-11-27T09:58:13;8.90;79.20
64833;HTU21D;51290;45.060;38.948;2022-11-27T10:00:40;8.91;79.16
64833;HTU21D;51290;45.060;38.948;2022-11-27T10:03:13;8.92;79.17
64833;HTU21D;51290;45.060;38.948;2022-11-27T10:08:58;8.98;79.20
64833;HTU21D;51290;45.060;38.948;2022-11-27T10:11:39;9.01;79.14
64833;HTU21D;51290;45.060;38.948;2022-11-27T10:17:01;9.03;79.02
64833;HTU21D;51290;45.060;38.948;2022-11-27T10:19:38;8.98;78.80
64833;HTU21D;51290;45.060;38.948;2022-11-27T10:25:25;8.90;78.97
64833;HTU21D;51290;45.060;38.948;2022-11-27T10:28:10;8.90;79.04
64833;HTU21D;51290;45.060;38.948;2022-11-27T10:30:47;8.89;78.94
64833;HTU21D;51290;45.060;38.948;2022-11-27T10:33:23;8.86;79.00
64833;HTU21D;51290;45.060;38.948;2022-11-27T10:35:50;8.83;78.98
64833;HTU21D;51290;45.060;38.948;2022-11-27T10:38:22;8.79;79.00
64833;HTU21D;51290;45.060;38.948;2022-11-27T10:41:02;8.76;79.13
64833;HTU21D;51290;45.060;38.948;2022-11-27T10:43:28;8.74;79.11
64833;HTU21D;51290;45.060;38.948;2022-11-27T10:46:23;8.70;79.13
64833;HTU21D;51290;45.060;38.948;2022-11-27T10:48:46;8.66;79.25
64833;HTU21D;51290;45.060;38.948;2022-11-27T10:51:28;8.66;79.28
64833;HTU21D;51290;45.060;38.948;2022-11-27T10:53:55;8.64;79.21
64833;HTU21D;51290;45.060;38.948;2022-11-27T10:56:51;8.64;79.24
64833;HTU21D;51290;45.060;38.948;2022-11-27T10:59:28;8.62;79.19
64833;HTU21D;51290;45.060;38.948;2022-11-27T11:01:56;8.63;79.25
64833;HTU21D;51290;45.060;38.948;2022-11-27T11:04:28;8.64;79.31
64833;HTU21D;51290;45.060;38.948;2022-11-27T11:06:55;8.63;79.29
64833;HTU21D;51290;45.060;38.948;2022-11-27T11:09:22;8.62;79.30
64833;HTU21D;51290;45.060;38.948;2022-11-27T11:11:49;8.59;79.25
64833;HTU21D;51290;45.060;38.948;2022-11-27T11:14:24;8.57;79.33
64833;HTU21D;51290;45.060;38.948;2022-11-27T11:16:52;8.55;79.39
64833;HTU21D;51290;45.060;38.948;2022-11-27T11:19:33;8.55;79.37
64833;HTU21D;51290;45.060;38.948;2022-11-27T11:22:04;8.52;79.40
64833;HTU21D;51290;45.060;38.948;2022-11-27T11:24:38;8.50;79.46
64833;HTU21D;51290;45.060;38.948;2022-11-27T11:27:16;8.50;79.54
64833;HTU21D;51290;45.060;38.948;2022-11-27T11:29:56;8.51;79.60
64833;HTU21D;51290;45.060;38.948;2022-11-27T11:32:33;8.52;79.61
64833;HTU21D;51290;45.060;38.948;2022-11-27T11:35:08;8.55;79.63
64833;HTU21D;51290;45.060;38.948;2022-11-27T11:37:38;8.57;79.68
64833;HTU21D;51290;45.060;38.948;2022-11-27T11:42:35;8.62;79.50
64833;HTU21D;51290;45.060;38.948;2022-11-27T11:47:29;8.62;79.50
64833;HTU21D;51290;45.060;38.948;2022-11-27T11:49:56;8.61;79.51
64833;HTU21D;51290;45.060;38.948;2022-11-27T12:00:42;8.44;79.47
64833;HTU21D;51290;45.060;38.948;2022-11-27T12:03:32;8.38;79.59
64833;HTU21D;51290;45.060;38.948;2022-11-27T12:06:24;8.32;79.62
64833;HTU21D;51290;45.060;38.948;2022-11-27T12:11:48;8.19;79.90
64833;HTU21D;51290;45.060;38.948;2022-11-27T12:19:58;8.12;80.19
64833;HTU21D;51290;45.060;38.948;2022-11-27T12:31:05;8.23;80.22
64833;HTU21D;51290;45.060;38.948;2022-11-27T12:33:43;8.27;80.16
64833;HTU21D;51290;45.060;38.948;2022-11-27T12:39:29;8.30;80.04
64833;HTU21D;51290;45.060;38.948;2022-11-27T12:42:19;8.27;79.98
64833;HTU21D;51290;45.060;38.948;2022-11-27T12:45:06;8.23;80.01
64833;HTU21D;51290;45.060;38.948;2022-11-27T12:47:43;8.21;80.11
64833;HTU21D;51290;45.060;38.948;2022-11-27T12:50:34;8.21;80.20
64833;HTU21D;51290;45.060;38.948;2022-11-27T12:53:28;8.24;80.27
64833;HTU21D;51290;45.060;38.948;2022-11-27T12:58:34;8.30;80.15
64833;HTU21D;51290;45.060;38.948;2022-11-27T13:01:06;8.32;80.14
64833;HTU21D;51290;45.060;38.948;2022-11-27T13:06:24;8.30;80.08
64833;HTU21D;51290;45.060;38.948;2022-11-27T13:09:04;8.28;80.05
64833;HTU21D;51290;45.060;38.948;2022-11-27T13:11:36;8.28;80.10
64833;HTU21D;51290;45.060;38.948;2022-11-27T13:17:08;8.28;80.22
64833;HTU21D;51290;45.060;38.948;2022-11-27T13:19:33;8.29;80.16
64833;HTU21D;51290;45.060;38.948;2022-11-27T13:22:07;8.27;80.10
64833;HTU21D;51290;45.060;38.948;2022-11-27T13:24:34;8.23;80.14
64833;HTU21D;51290;45.060;38.948;2022-11-27T13:27:20;8.23;80.21
64833;HTU21D;51290;45.060;38.948;2022-11-27T13:29:49;8.23;80.19
64833;HTU21D;51290;45.060;38.948;2022-11-27T13:32:24;8.24;80.22
64833;HTU21D;51290;45.060;38.948;2022-11-27T13:34:52;8.23;80.20
64833;HTU21D;51290;45.060;38.948;2022-11-27T13:40:12;8.23;80.13
64833;HTU21D;51290;45.060;38.948;2022-11-27T13:42:44;8.18;80.11
64833;HTU21D;51290;45.060;38.948;2022-11-27T13:45:21;8.14;80.20
64833;HTU21D;51290;45.060;38.948;2022-11-27T13:47:49;8.09;80.30
64833;HTU21D;51290;45.060;38.948;2022-11-27T13:50:18;8.05;80.35
64833;HTU21D;51290;45.060;38.948;2022-11-27T13:52:55;8.02;80.45
64833;HTU21D;51290;45.060;38.948;2022-11-27T13:55:34;7.99;80.52
64833;HTU21D;51290;45.060;38.948;2022-11-27T13:58:01;7.98;80.64
64833;HTU21D;51290;45.060;38.948;2022-11-27T14:00:35;7.98;80.74
64833;HTU21D;51290;45.060;38.948;2022-11-27T14:03:02;7.99;80.74
64833;HTU21D;51290;45.060;38.948;2022-11-27T14:05:39;8.01;80.70
64833;HTU21D;51290;45.060;38.948;2022-11-27T14:08:27;8.02;80.73
64833;HTU21D;51290;45.060;38.948;2022-11-27T14:11:03;8.02;80.72
64833;HTU21D;51290;45.060;38.948;2022-11-27T14:13:49;8.01;80.71
64833;HTU21D;51290;45.060;38.948;2022-11-27T14:16:34;8.01;80.77
64833;HTU21D;51290;45.060;38.948;2022-11-27T14:19:21;8.02;80.78
64833;HTU21D;51290;45.060;38.948;2022-11-27T14:21:48;8.02;80.72
64833;HTU21D;51290;45.060;38.948;2022-11-27T14:24:40;7.99;80.78
64833;HTU21D;51290;45.060;38.948;2022-11-27T14:27:25;7.97;80.87
64833;HTU21D;51290;45.060;38.948;2022-11-27T14:29:52;7.96;80.94
64833;HTU21D;51290;45.060;38.948;2022-11-27T14:32:19;7.93;81.04
64833;HTU21D;51290;45.060;38.948;2022-11-27T14:34:46;7.93;81.08
64833;HTU21D;51290;45.060;38.948;2022-11-27T14:37:27;7.94;81.14
64833;HTU21D;51290;45.060;38.948;2022-11-27T14:39:53;7.96;81.25
64833;HTU21D;51290;45.060;38.948;2022-11-27T14:42:22;7.96;81.29
64833;HTU21D;51290;45.060;38.948;2022-11-27T14:45:00;7.96;81.29
64833;HTU21D;51290;45.060;38.948;2022-11-27T14:47:26;7.93;81.32
64833;HTU21D;51290;45.060;38.948;2022-11-27T14:49:55;7.96;81.40
64833;HTU21D;51290;45.060;38.948;2022-11-27T14:52:22;7.94;81.39
64833;HTU21D;51290;45.060;38.948;2022-11-27T14:54:48;7.98;81.46
64833;HTU21D;51290;45.060;38.948;2022-11-27T14:57:24;8.00;81.43
64833;HTU21D;51290;45.060;38.948;2022-11-27T15:02:29;8.03;81.40
64833;HTU21D;51290;45.060;38.948;2022-11-27T15:05:06;8.03;81.40
64833;HTU21D;51290;45.060;38.948;2022-11-27T15:07:34;8.01;81.46
64833;HTU21D;51290;45.060;38.948;2022-11-27T15:10:05;7.99;81.52
64833;HTU21D;51290;45.060;38.948;2022-11-27T15:12:33;7.98;81.62
64833;HTU21D;51290;45.060;38.948;2022-11-27T15:15:12;7.96;81.67
64833;HTU21D;51290;45.060;38.948;2022-11-27T15:17:43;7.93;81.74
64833;HTU21D;51290;45.060;38.948;2022-11-27T15:20:22;7.94;81.75
64833;HTU21D;51290;45.060;38.948;2022-11-27T15:22:51;7.96;81.74
64833;HTU21D;51290;45.060;38.948;2022-11-27T15:25:47;7.94;81.75
64833;HTU21D;51290;45.060;38.948;2022-11-27T15:31:31;7.94;81.78
64833;HTU21D;51290;45.060;38.948;2022-11-27T15:36:33;7.91;81.81
64833;HTU21D;51290;45.060;38.948;2022-11-27T15:41:36;7.90;81.93
64833;HTU21D;51290;45.060;38.948;2022-11-27T15:44:09;7.88;82.04
64833;HTU21D;51290;45.060;38.948;2022-11-27T15:46:35;7.85;82.07
64833;HTU21D;51290;45.060;38.948;2022-11-27T15:49:01;7.85;82.10
64833;HTU21D;51290;45.060;38.948;2022-11-27T15:51:27;7.84;82.15
64833;HTU21D;51290;45.060;38.948;2022-11-27T15:53:54;7.83;82.14
64833;HTU21D;51290;45.060;38.948;2022-11-27T15:56:20;7.83;82.20
64833;HTU21D;51290;45.060;38.948;2022-11-27T15:58:50;7.83;82.25
64833;HTU21D;51290;45.060;38.948;2022-11-27T16:01:16;7.82;82.31
64833;HTU21D;51290;45.060;38.948;2022-11-27T16:04:03;7.84;82.37
64833;HTU21D;51290;45.060;38.948;2022-11-27T16:06:30;7.88;82.38
64833;HTU21D;51290;45.060;38.948;2022-11-27T16:09:00;7.89;82.33
64833;HTU21D;51290;45.060;38.948;2022-11-27T16:14:16;7.97;82.33
64833;HTU21D;51290;45.060;38.948;2022-11-27T16:17:02;8.01;82.24
64833;HTU21D;51290;45.060;38.948;2022-11-27T16:19:29;8.01;82.15
64833;HTU21D;51290;45.060;38.948;2022-11-27T16:21:55;8.04;82.15
64833;HTU21D;51290;45.060;38.948;2022-11-27T16:24:21;8.04;82.11
64833;HTU21D;51290;45.060;38.948;2022-11-27T16:26:47;8.04;82.10
64833;HTU21D;51290;45.060;38.948;2022-11-27T16:29:14;8.02;82.07
64833;HTU21D;51290;45.060;38.948;2022-11-27T16:31:41;8.02;82.10
64833;HTU21D;51290;45.060;38.948;2022-11-27T16:34:07;8.03;82.13
64833;HTU21D;51290;45.060;38.948;2022-11-27T16:36:40;7.99;82.18
64833;HTU21D;51290;45.060;38.948;2022-11-27T16:39:09;7.98;82.20
64833;HTU21D;51290;45.060;38.948;2022-11-27T16:41:38;7.94;82.26
64833;HTU21D;51290;45.060;38.948;2022-11-27T16:44:10;7.92;82.36
64833;HTU21D;51290;45.060;38.948;2022-11-27T16:46:37;7.90;82.40
64833;HTU21D;51290;45.060;38.948;2022-11-27T16:49:05;7.90;82.49
64833;HTU21D;51290;45.060;38.948;2022-11-27T16:51:33;7.87;82.53
64833;HTU21D;51290;45.060;38.948;2022-11-27T16:54:01;7.86;82.58
64833;HTU21D;51290;45.060;38.948;2022-11-27T16:56:30;7.85;82.61
64833;HTU21D;51290;45.060;38.948;2022-11-27T16:58:57;7.83;82.65
64833;HTU21D;51290;45.060;38.948;2022-11-27T17:01:30;7.83;82.69
64833;HTU21D;51290;45.060;38.948;2022-11-27T17:03:56;7.83;82.71
64833;HTU21D;51290;45.060;38.948;2022-11-27T17:06:27;7.84;82.75
64833;HTU21D;51290;45.060;38.948;2022-11-27T17:08:55;7.85;82.70